Sparta, TN

4:25 PM CDT on September 02, 2014 (GMT -0500)
Bakers Crossroads | Change Station
CLOSE
Current Station
Personal Weather Station
Location: Sparta, TN
Elevation: 1027 ft
Nearby Weather Stations

Elev 1027 ft 36.01 °N, 85.56 °W | Updated 1 second ago

Clear
Clear
91.8 °F
Feels Like 96 °F
N
9.8
Wind Variable Wind from WSW
Gusts 9.8 mph

Today
High -- | Low -- °F
--% Chance of Precip.
Yesterday
High -- | Low -- °F
Precip. -- in
6:14 AM 7:08 PM
First Quarter, 55% visible
Pressure 29.96 in
Visibility 10.0 miles
Clouds Clear
Heat Index 96 °F
Dew Point 68 °F
Humidity 46%
Rainfall 0.00 in
Snow Depth Not available.
UV 4 out of 12
Pollen 9.60 out of 12
Air Quality Not available.
Flu Activity Not available.
METAR KSRB 022115Z AUTO 23011KT 10SM CLR 32/23 A2996 RMK

More Conditions Fewer Conditions

Pressure 29.96 in
Visibility 10.0 miles
Clouds Clear
Heat Index 96 °F
Dew Point 68 °F
Humidity 46%
Rainfall 0.00 in
Snow Depth Not available.
UV 4 out of 12
Pollen 9.60 out of 12
Air Quality Not available.
Flu Activity Not available.
METAR KSRB 022115Z AUTO 23011KT 10SM CLR 32/23 A2996 RMK

More Conditions Fewer Conditions

10-Day Weather Forecast

Almanac

Astronomy

Sep. 02, 2014 Rise Set
Actual Time 6:14 AM CDT 7:08 PM CDT
Civil Twilight 5:48 AM CDT 7:34 PM CDT
Nautical Twilight 5:17 AM CDT 8:05 PM CDT
Astronomical Twilight 4:45 AM CDT 8:36 PM CDT
Moon 1:44 PM CDT No Moon Set
Length of Visible Light 13h 45m
Length of Day
12h 53m
Tomorrow will be 2m 11s shorter.
First Quarter, 55% of the Moon is Illuminated
Today
First Quarter
Sep 8
Full
Sep 15
Last Quarter
Sep 24
New
Oct 1
First Quarter

Today's Extremes

State Highs State Lows

Community

WunderPhotos

Upload Photos

1,749,769 photos uploaded!

Nearby

Snow Depth

Station Depth Elevation
No new snow has been reported.

Earthquake Activity

City Distance Mag. Time & Date
No recent earthquake activity has been reported nearby.
Minimum magnitude displayed is 2.5.

Coastal Water Temperatures

Place Temperature
No Stations Reporting

Nearby Weather Stations